Terminal Aerodrome Forecast
Issued by NWS

Home | Current Version | Previous Version | Text Only | Print | Product List | Glossary On
Versions: 1 2 3 4 5 6 7 8 9 10 11 12 13 14 15
000
FTAK31 PAJN 031300 AAA
TAFAKT
TAF AMD
PAKT 031319Z 0313/0412 VRB03KT 5SM BCFG BKN150
      TEMPO 0313/0315 2SM BR SCT002 BKN150
     FM031700 11008KT P6SM SCT070 BKN100
     FM040000 10010KT P6SM SCT060 BKN090
     FM040900 VRB06KT P6SM VCSH SCT040 BKN080
      AMD LTD TO CLD VIS AND WIND 0313/0315=

USA.gov is the U.S. government's official web portal to all federal, state and local government web resources and services.